sensor_id;sensor_type;location;lat;lon;timestamp;P1;durP1;ratioP1;P2;durP2;ratioP2
72379;SDS011;60354;47.798;12.472;2022-08-04T00:00:32;6.35;;;1.60;;
72379;SDS011;60354;47.798;12.472;2022-08-04T00:03:18;2.72;;;1.60;;
72379;SDS011;60354;47.798;12.472;2022-08-04T00:10:54;4.55;;;1.58;;
72379;SDS011;60354;47.798;12.472;2022-08-04T00:13:23;2.65;;;1.40;;
72379;SDS011;60354;47.798;12.472;2022-08-04T00:15:55;2.80;;;1.50;;
72379;SDS011;60354;47.798;12.472;2022-08-04T00:18:25;1.77;;;1.45;;
72379;SDS011;60354;47.798;12.472;2022-08-04T00:20:54;2.45;;;1.67;;
72379;SDS011;60354;47.798;12.472;2022-08-04T00:23:23;2.15;;;1.67;;
72379;SDS011;60354;47.798;12.472;2022-08-04T00:25:51;3.75;;;1.50;;
72379;SDS011;60354;47.798;12.472;2022-08-04T00:28:18;3.90;;;1.52;;
72379;SDS011;60354;47.798;12.472;2022-08-04T00:30:45;2.40;;;1.70;;
72379;SDS011;60354;47.798;12.472;2022-08-04T00:33:11;2.78;;;1.67;;
72379;SDS011;60354;47.798;12.472;2022-08-04T00:35:42;2.83;;;1.70;;
72379;SDS011;60354;47.798;12.472;2022-08-04T00:38:09;2.70;;;1.50;;
72379;SDS011;60354;47.798;12.472;2022-08-04T00:40:39;3.25;;;1.40;;
72379;SDS011;60354;47.798;12.472;2022-08-04T00:43:23;2.83;;;1.60;;
72379;SDS011;60354;47.798;12.472;2022-08-04T01:16:05;3.70;;;1.70;;
72379;SDS011;60354;47.798;12.472;2022-08-04T01:19:11;3.90;;;1.60;;
72379;SDS011;60354;47.798;12.472;2022-08-04T01:30:04;2.70;;;1.70;;
72379;SDS011;60354;47.798;12.472;2022-08-04T01:38:00;2.57;;;1.87;;
72379;SDS011;60354;47.798;12.472;2022-08-04T01:40:36;1.90;;;1.40;;
72379;SDS011;60354;47.798;12.472;2022-08-04T01:43:02;2.15;;;1.60;;
72379;SDS011;60354;47.798;12.472;2022-08-04T01:45:29;2.42;;;1.60;;
72379;SDS011;60354;47.798;12.472;2022-08-04T01:47:55;2.05;;;1.50;;
72379;SDS011;60354;47.798;12.472;2022-08-04T01:50:21;7.50;;;1.67;;
72379;SDS011;60354;47.798;12.472;2022-08-04T01:52:52;1.95;;;1.40;;
72379;SDS011;60354;47.798;12.472;2022-08-04T01:55:18;2.25;;;1.60;;
72379;SDS011;60354;47.798;12.472;2022-08-04T01:57:46;2.10;;;1.50;;
72379;SDS011;60354;47.798;12.472;2022-08-04T02:00:17;1.98;;;1.60;;
72379;SDS011;60354;47.798;12.472;2022-08-04T02:02:48;3.17;;;1.50;;
72379;SDS011;60354;47.798;12.472;2022-08-04T02:05:15;4.18;;;1.65;;
72379;SDS011;60354;47.798;12.472;2022-08-04T02:16:31;3.75;;;1.60;;
72379;SDS011;60354;47.798;12.472;2022-08-04T02:24:20;4.55;;;1.40;;
72379;SDS011;60354;47.798;12.472;2022-08-04T02:26:51;3.05;;;1.60;;
72379;SDS011;60354;47.798;12.472;2022-08-04T02:32:18;3.90;;;1.70;;
72379;SDS011;60354;47.798;12.472;2022-08-04T02:37:33;3.17;;;1.70;;
72379;SDS011;60354;47.798;12.472;2022-08-04T02:40:04;2.97;;;1.52;;
72379;SDS011;60354;47.798;12.472;2022-08-04T02:42:33;2.40;;;1.60;;
72379;SDS011;60354;47.798;12.472;2022-08-04T02:44:59;2.85;;;1.60;;
72379;SDS011;60354;47.798;12.472;2022-08-04T02:47:26;2.78;;;1.67;;
72379;SDS011;60354;47.798;12.472;2022-08-04T02:49:52;2.38;;;1.60;;
72379;SDS011;60354;47.798;12.472;2022-08-04T02:52:20;2.88;;;1.65;;
72379;SDS011;60354;47.798;12.472;2022-08-04T02:54:50;5.35;;;1.55;;
72379;SDS011;60354;47.798;12.472;2022-08-04T02:57:17;6.20;;;1.60;;
72379;SDS011;60354;47.798;12.472;2022-08-04T03:02:28;4.50;;;2.00;;
72379;SDS011;60354;47.798;12.472;2022-08-04T03:05:28;7.55;;;1.88;;
72379;SDS011;60354;47.798;12.472;2022-08-04T03:08:06;2.67;;;1.88;;
72379;SDS011;60354;47.798;12.472;2022-08-04T03:17:03;4.55;;;1.80;;
72379;SDS011;60354;47.798;12.472;2022-08-04T03:19:27;3.45;;;1.85;;
72379;SDS011;60354;47.798;12.472;2022-08-04T03:30:10;3.47;;;1.80;;
72379;SDS011;60354;47.798;12.472;2022-08-04T03:43:45;2.20;;;1.80;;
72379;SDS011;60354;47.798;12.472;2022-08-04T04:00:23;5.78;;;1.90;;
72379;SDS011;60354;47.798;12.472;2022-08-04T04:11:03;2.00;;;1.70;;
72379;SDS011;60354;47.798;12.472;2022-08-04T04:25:03;5.72;;;2.08;;
72379;SDS011;60354;47.798;12.472;2022-08-04T04:27:39;4.15;;;1.80;;
72379;SDS011;60354;47.798;12.472;2022-08-04T04:36:11;5.50;;;2.35;;
72379;SDS011;60354;47.798;12.472;2022-08-04T04:38:43;5.47;;;2.10;;
72379;SDS011;60354;47.798;12.472;2022-08-04T04:50:22;3.30;;;2.00;;
72379;SDS011;60354;47.798;12.472;2022-08-04T04:53:44;6.38;;;2.10;;
72379;SDS011;60354;47.798;12.472;2022-08-04T04:58:33;2.10;;;1.90;;
72379;SDS011;60354;47.798;12.472;2022-08-04T05:01:15;2.97;;;1.80;;
72379;SDS011;60354;47.798;12.472;2022-08-04T05:07:04;5.15;;;1.90;;
72379;SDS011;60354;47.798;12.472;2022-08-04T05:15:28;5.15;;;2.00;;
72379;SDS011;60354;47.798;12.472;2022-08-04T05:17:56;2.38;;;1.70;;
72379;SDS011;60354;47.798;12.472;2022-08-04T05:20:26;2.50;;;1.90;;
72379;SDS011;60354;47.798;12.472;2022-08-04T05:22:59;4.43;;;2.08;;
72379;SDS011;60354;47.798;12.472;2022-08-04T05:30:40;2.83;;;2.00;;
72379;SDS011;60354;47.798;12.472;2022-08-04T05:35:43;2.63;;;1.88;;
72379;SDS011;60354;47.798;12.472;2022-08-04T05:38:14;2.95;;;1.73;;
72379;SDS011;60354;47.798;12.472;2022-08-04T05:40:42;2.42;;;1.95;;
72379;SDS011;60354;47.798;12.472;2022-08-04T05:43:08;2.10;;;1.80;;
72379;SDS011;60354;47.798;12.472;2022-08-04T05:45:36;2.88;;;2.00;;
72379;SDS011;60354;47.798;12.472;2022-08-04T05:48:02;3.40;;;2.03;;
72379;SDS011;60354;47.798;12.472;2022-08-04T05:50:30;5.43;;;1.98;;
72379;SDS011;60354;47.798;12.472;2022-08-04T05:52:57;3.30;;;2.10;;
72379;SDS011;60354;47.798;12.472;2022-08-04T05:55:25;4.50;;;2.00;;
72379;SDS011;60354;47.798;12.472;2022-08-04T05:57:51;3.20;;;2.08;;
72379;SDS011;60354;47.798;12.472;2022-08-04T06:00:18;2.90;;;2.10;;
72379;SDS011;60354;47.798;12.472;2022-08-04T06:02:47;5.78;;;2.22;;
72379;SDS011;60354;47.798;12.472;2022-08-04T06:05:15;3.42;;;1.90;;
72379;SDS011;60354;47.798;12.472;2022-08-04T06:07:42;2.72;;;2.05;;
72379;SDS011;60354;47.798;12.472;2022-08-04T06:10:09;2.53;;;2.10;;
72379;SDS011;60354;47.798;12.472;2022-08-04T06:12:36;2.78;;;2.15;;
72379;SDS011;60354;47.798;12.472;2022-08-04T06:15:02;2.13;;;1.80;;
72379;SDS011;60354;47.798;12.472;2022-08-04T06:17:37;4.03;;;1.75;;
72379;SDS011;60354;47.798;12.472;2022-08-04T06:20:06;5.78;;;2.35;;
72379;SDS011;60354;47.798;12.472;2022-08-04T06:22:33;2.50;;;1.83;;
72379;SDS011;60354;47.798;12.472;2022-08-04T06:25:03;4.90;;;2.08;;
72379;SDS011;60354;47.798;12.472;2022-08-04T06:27:31;4.70;;;2.05;;
72379;SDS011;60354;47.798;12.472;2022-08-04T06:29:57;3.50;;;1.98;;
72379;SDS011;60354;47.798;12.472;2022-08-04T06:32:25;2.63;;;2.08;;
72379;SDS011;60354;47.798;12.472;2022-08-04T06:35:01;4.03;;;2.10;;
72379;SDS011;60354;47.798;12.472;2022-08-04T06:37:31;2.75;;;2.10;;
72379;SDS011;60354;47.798;12.472;2022-08-04T06:39:58;2.97;;;2.13;;
72379;SDS011;60354;47.798;12.472;2022-08-04T06:42:25;3.92;;;2.13;;
72379;SDS011;60354;47.798;12.472;2022-08-04T06:44:55;3.42;;;2.10;;
72379;SDS011;60354;47.798;12.472;2022-08-04T06:47:22;4.13;;;1.95;;
72379;SDS011;60354;47.798;12.472;2022-08-04T06:49:50;4.15;;;2.00;;
72379;SDS011;60354;47.798;12.472;2022-08-04T06:52:17;5.15;;;2.08;;
72379;SDS011;60354;47.798;12.472;2022-08-04T06:54:44;2.88;;;1.92;;
72379;SDS011;60354;47.798;12.472;2022-08-04T06:57:15;3.15;;;2.05;;
72379;SDS011;60354;47.798;12.472;2022-08-04T06:59:48;4.43;;;1.80;;
72379;SDS011;60354;47.798;12.472;2022-08-04T07:02:19;2.92;;;1.73;;
72379;SDS011;60354;47.798;12.472;2022-08-04T07:04:48;4.15;;;2.10;;
72379;SDS011;60354;47.798;12.472;2022-08-04T07:07:13;3.60;;;2.00;;
72379;SDS011;60354;47.798;12.472;2022-08-04T07:09:40;3.22;;;1.83;;
72379;SDS011;60354;47.798;12.472;2022-08-04T07:12:06;3.22;;;1.95;;
72379;SDS011;60354;47.798;12.472;2022-08-04T07:14:33;4.78;;;2.20;;
72379;SDS011;60354;47.798;12.472;2022-08-04T07:17:03;3.78;;;1.83;;
72379;SDS011;60354;47.798;12.472;2022-08-04T07:19:32;3.33;;;1.73;;
72379;SDS011;60354;47.798;12.472;2022-08-04T07:22:00;3.65;;;2.00;;
72379;SDS011;60354;47.798;12.472;2022-08-04T07:24:30;2.47;;;1.80;;
72379;SDS011;60354;47.798;12.472;2022-08-04T07:26:57;4.53;;;1.90;;
72379;SDS011;60354;47.798;12.472;2022-08-04T07:29:22;3.17;;;1.70;;
72379;SDS011;60354;47.798;12.472;2022-08-04T07:31:48;2.00;;;1.60;;
72379;SDS011;60354;47.798;12.472;2022-08-04T07:34:14;2.78;;;1.90;;
72379;SDS011;60354;47.798;12.472;2022-08-04T07:36:39;4.93;;;1.88;;
72379;SDS011;60354;47.798;12.472;2022-08-04T07:39:05;2.13;;;1.75;;
72379;SDS011;60354;47.798;12.472;2022-08-04T07:41:31;2.22;;;1.77;;
72379;SDS011;60354;47.798;12.472;2022-08-04T07:43:57;5.05;;;1.98;;
72379;SDS011;60354;47.798;12.472;2022-08-04T07:46:23;3.70;;;1.83;;
72379;SDS011;60354;47.798;12.472;2022-08-04T07:48:49;1.77;;;1.60;;
72379;SDS011;60354;47.798;12.472;2022-08-04T07:51:15;2.97;;;1.65;;
72379;SDS011;60354;47.798;12.472;2022-08-04T07:53:41;2.33;;;1.70;;
72379;SDS011;60354;47.798;12.472;2022-08-04T07:56:07;3.10;;;1.70;;
72379;SDS011;60354;47.798;12.472;2022-08-04T07:58:32;3.10;;;1.75;;
72379;SDS011;60354;47.798;12.472;2022-08-04T08:00:58;3.08;;;1.70;;
72379;SDS011;60354;47.798;12.472;2022-08-04T08:03:24;3.45;;;2.00;;
72379;SDS011;60354;47.798;12.472;2022-08-04T08:05:51;4.68;;;1.80;;
72379;SDS011;60354;47.798;12.472;2022-08-04T08:08:16;5.00;;;1.85;;
72379;SDS011;60354;47.798;12.472;2022-08-04T08:10:45;3.60;;;1.70;;
72379;SDS011;60354;47.798;12.472;2022-08-04T08:13:12;3.60;;;1.75;;
72379;SDS011;60354;47.798;12.472;2022-08-04T08:15:39;1.70;;;1.60;;
72379;SDS011;60354;47.798;12.472;2022-08-04T08:18:05;5.28;;;1.98;;
72379;SDS011;60354;47.798;12.472;2022-08-04T08:20:31;6.53;;;1.90;;
72379;SDS011;60354;47.798;12.472;2022-08-04T08:22:58;2.28;;;1.70;;
72379;SDS011;60354;47.798;12.472;2022-08-04T08:25:24;4.68;;;2.03;;
72379;SDS011;60354;47.798;12.472;2022-08-04T08:27:50;2.67;;;1.88;;
72379;SDS011;60354;47.798;12.472;2022-08-04T08:30:16;4.03;;;2.00;;
72379;SDS011;60354;47.798;12.472;2022-08-04T08:32:41;4.13;;;1.90;;
72379;SDS011;60354;47.798;12.472;2022-08-04T08:35:07;3.55;;;2.03;;
72379;SDS011;60354;47.798;12.472;2022-08-04T08:37:37;2.17;;;1.75;;
72379;SDS011;60354;47.798;12.472;2022-08-04T08:45:50;3.25;;;2.00;;
72379;SDS011;60354;47.798;12.472;2022-08-04T08:48:32;2.33;;;1.95;;
72379;SDS011;60354;47.798;12.472;2022-08-04T08:57:00;3.15;;;2.22;;
72379;SDS011;60354;47.798;12.472;2022-08-04T09:08:22;4.60;;;2.33;;
72379;SDS011;60354;47.798;12.472;2022-08-04T09:11:13;3.10;;;2.10;;
72379;SDS011;60354;47.798;12.472;2022-08-04T09:16:19;6.25;;;2.15;;
72379;SDS011;60354;47.798;12.472;2022-08-04T09:24:49;2.90;;;2.25;;
72379;SDS011;60354;47.798;12.472;2022-08-04T09:30:19;3.03;;;2.17;;
72379;SDS011;60354;47.798;12.472;2022-08-04T09:38:15;5.15;;;2.15;;
72379;SDS011;60354;47.798;12.472;2022-08-04T09:40:53;3.87;;;2.13;;
72379;SDS011;60354;47.798;12.472;2022-08-04T09:49:20;5.80;;;2.20;;
72379;SDS011;60354;47.798;12.472;2022-08-04T09:51:58;4.38;;;2.13;;
72379;SDS011;60354;47.798;12.472;2022-08-04T09:59:49;2.78;;;2.20;;
72379;SDS011;60354;47.798;12.472;2022-08-04T10:02:18;5.78;;;2.30;;
72379;SDS011;60354;47.798;12.472;2022-08-04T10:04:46;5.65;;;2.30;;
72379;SDS011;60354;47.798;12.472;2022-08-04T10:09:46;3.50;;;2.03;;
72379;SDS011;60354;47.798;12.472;2022-08-04T10:12:29;4.15;;;2.20;;
72379;SDS011;60354;47.798;12.472;2022-08-04T10:15:09;4.78;;;2.00;;
72379;SDS011;60354;47.798;12.472;2022-08-04T10:26:26;2.97;;;2.22;;
72379;SDS011;60354;47.798;12.472;2022-08-04T10:29:04;3.20;;;2.22;;
72379;SDS011;60354;47.798;12.472;2022-08-04T10:31:41;3.80;;;2.17;;
72379;SDS011;60354;47.798;12.472;2022-08-04T10:34:16;4.00;;;2.10;;
72379;SDS011;60354;47.798;12.472;2022-08-04T10:36:48;3.75;;;2.00;;
72379;SDS011;60354;47.798;12.472;2022-08-04T10:39:22;4.38;;;2.30;;
72379;SDS011;60354;47.798;12.472;2022-08-04T10:42:02;3.28;;;2.00;;
72379;SDS011;60354;47.798;12.472;2022-08-04T10:47:17;3.45;;;2.03;;
72379;SDS011;60354;47.798;12.472;2022-08-04T10:49:47;3.95;;;2.22;;
72379;SDS011;60354;47.798;12.472;2022-08-04T10:52:21;4.78;;;2.10;;
72379;SDS011;60354;47.798;12.472;2022-08-04T10:58:01;3.10;;;2.20;;
72379;SDS011;60354;47.798;12.472;2022-08-04T11:00:30;2.60;;;2.13;;
72379;SDS011;60354;47.798;12.472;2022-08-04T11:05:38;3.58;;;2.13;;
72379;SDS011;60354;47.798;12.472;2022-08-04T11:08:44;2.50;;;2.05;;
72379;SDS011;60354;47.798;12.472;2022-08-04T11:14:03;4.55;;;2.28;;
72379;SDS011;60354;47.798;12.472;2022-08-04T11:24:51;3.47;;;2.30;;
72379;SDS011;60354;47.798;12.472;2022-08-04T11:27:32;2.42;;;2.05;;
72379;SDS011;60354;47.798;12.472;2022-08-04T11:30:08;4.32;;;2.30;;
72379;SDS011;60354;47.798;12.472;2022-08-04T11:35:28;2.83;;;2.05;;
72379;SDS011;60354;47.798;12.472;2022-08-04T11:38:05;3.03;;;2.20;;
72379;SDS011;60354;47.798;12.472;2022-08-04T11:40:36;3.25;;;2.13;;
72379;SDS011;60354;47.798;12.472;2022-08-04T11:45:44;3.67;;;2.40;;
72379;SDS011;60354;47.798;12.472;2022-08-04T11:48:16;2.20;;;2.00;;
72379;SDS011;60354;47.798;12.472;2022-08-04T11:50:52;3.10;;;2.05;;
72379;SDS011;60354;47.798;12.472;2022-08-04T11:53:20;4.78;;;2.30;;
72379;SDS011;60354;47.798;12.472;2022-08-04T11:55:49;4.13;;;2.13;;
72379;SDS011;60354;47.798;12.472;2022-08-04T11:58:17;4.53;;;2.28;;
72379;SDS011;60354;47.798;12.472;2022-08-04T12:00:49;4.57;;;2.10;;
72379;SDS011;60354;47.798;12.472;2022-08-04T12:03:48;4.43;;;2.20;;
72379;SDS011;60354;47.798;12.472;2022-08-04T12:06:35;3.03;;;2.10;;
72379;SDS011;60354;47.798;12.472;2022-08-04T12:12:22;4.35;;;2.20;;
72379;SDS011;60354;47.798;12.472;2022-08-04T12:18:18;3.85;;;2.10;;
72379;SDS011;60354;47.798;12.472;2022-08-04T12:20:54;4.20;;;2.10;;
72379;SDS011;60354;47.798;12.472;2022-08-04T12:23:25;3.75;;;2.30;;
72379;SDS011;60354;47.798;12.472;2022-08-04T12:25:58;3.83;;;2.00;;
72379;SDS011;60354;47.798;12.472;2022-08-04T12:28:28;3.65;;;2.00;;
72379;SDS011;60354;47.798;12.472;2022-08-04T12:31:01;2.83;;;2.17;;
72379;SDS011;60354;47.798;12.472;2022-08-04T12:33:39;2.72;;;1.80;;
72379;SDS011;60354;47.798;12.472;2022-08-04T12:36:14;3.40;;;1.73;;
72379;SDS011;60354;47.798;12.472;2022-08-04T12:38:58;3.47;;;2.00;;
72379;SDS011;60354;47.798;12.472;2022-08-04T12:41:35;7.53;;;2.00;;
72379;SDS011;60354;47.798;12.472;2022-08-04T12:44:05;2.65;;;1.95;;
72379;SDS011;60354;47.798;12.472;2022-08-04T12:46:34;3.55;;;2.10;;
72379;SDS011;60354;47.798;12.472;2022-08-04T12:49:02;9.27;;;2.33;;
72379;SDS011;60354;47.798;12.472;2022-08-04T12:51:28;5.78;;;2.17;;
72379;SDS011;60354;47.798;12.472;2022-08-04T12:54:02;2.67;;;2.00;;
72379;SDS011;60354;47.798;12.472;2022-08-04T12:56:30;3.67;;;2.20;;
72379;SDS011;60354;47.798;12.472;2022-08-04T12:59:01;2.78;;;1.90;;
72379;SDS011;60354;47.798;12.472;2022-08-04T13:01:31;6.05;;;2.45;;
72379;SDS011;60354;47.798;12.472;2022-08-04T13:03:59;4.80;;;2.20;;
72379;SDS011;60354;47.798;12.472;2022-08-04T13:06:32;2.83;;;2.03;;
72379;SDS011;60354;47.798;12.472;2022-08-04T13:09:06;3.60;;;2.03;;
72379;SDS011;60354;47.798;12.472;2022-08-04T13:11:41;3.42;;;2.28;;
72379;SDS011;60354;47.798;12.472;2022-08-04T13:14:11;3.70;;;2.20;;
72379;SDS011;60354;47.798;12.472;2022-08-04T13:16:38;2.97;;;1.98;;
72379;SDS011;60354;47.798;12.472;2022-08-04T13:19:06;6.25;;;2.33;;
72379;SDS011;60354;47.798;12.472;2022-08-04T13:21:33;3.17;;;2.20;;
72379;SDS011;60354;47.798;12.472;2022-08-04T13:24:03;6.80;;;2.38;;
72379;SDS011;60354;47.798;12.472;2022-08-04T13:26:34;3.05;;;2.00;;
72379;SDS011;60354;47.798;12.472;2022-08-04T13:29:01;2.83;;;2.10;;
72379;SDS011;60354;47.798;12.472;2022-08-04T13:31:29;3.85;;;2.00;;
72379;SDS011;60354;47.798;12.472;2022-08-04T13:34:02;3.85;;;2.17;;
72379;SDS011;60354;47.798;12.472;2022-08-04T13:36:31;3.80;;;2.20;;
72379;SDS011;60354;47.798;12.472;2022-08-04T13:38:59;3.58;;;2.20;;
72379;SDS011;60354;47.798;12.472;2022-08-04T13:41:30;6.95;;;1.98;;
72379;SDS011;60354;47.798;12.472;2022-08-04T13:43:59;4.60;;;2.20;;
72379;SDS011;60354;47.798;12.472;2022-08-04T13:47:13;4.00;;;2.08;;
72379;SDS011;60354;47.798;12.472;2022-08-04T13:49:18;3.70;;;2.13;;
72379;SDS011;60354;47.798;12.472;2022-08-04T13:51:51;4.80;;;2.17;;
72379;SDS011;60354;47.798;12.472;2022-08-04T13:54:19;5.70;;;2.10;;
72379;SDS011;60354;47.798;12.472;2022-08-04T13:56:47;5.03;;;1.90;;
72379;SDS011;60354;47.798;12.472;2022-08-04T13:59:16;2.70;;;1.83;;
72379;SDS011;60354;47.798;12.472;2022-08-04T14:01:44;5.75;;;2.55;;
72379;SDS011;60354;47.798;12.472;2022-08-04T14:04:21;3.38;;;2.00;;
72379;SDS011;60354;47.798;12.472;2022-08-04T14:06:50;2.33;;;2.05;;
72379;SDS011;60354;47.798;12.472;2022-08-04T14:09:23;4.45;;;2.03;;
72379;SDS011;60354;47.798;12.472;2022-08-04T14:11:53;2.63;;;1.83;;
72379;SDS011;60354;47.798;12.472;2022-08-04T14:19:27;2.25;;;1.95;;
72379;SDS011;60354;47.798;12.472;2022-08-04T14:21:54;3.67;;;1.90;;
72379;SDS011;60354;47.798;12.472;2022-08-04T14:24:26;5.25;;;2.10;;
72379;SDS011;60354;47.798;12.472;2022-08-04T14:29:34;6.35;;;1.95;;
72379;SDS011;60354;47.798;12.472;2022-08-04T14:32:05;5.65;;;2.25;;
72379;SDS011;60354;47.798;12.472;2022-08-04T14:34:37;3.83;;;2.17;;
72379;SDS011;60354;47.798;12.472;2022-08-04T14:37:07;5.15;;;2.10;;
72379;SDS011;60354;47.798;12.472;2022-08-04T14:39:35;4.55;;;2.10;;
72379;SDS011;60354;47.798;12.472;2022-08-04T14:42:06;6.65;;;2.20;;
72379;SDS011;60354;47.798;12.472;2022-08-04T14:44:37;3.63;;;2.00;;
72379;SDS011;60354;47.798;12.472;2022-08-04T14:47:17;2.22;;;2.00;;
72379;SDS011;60354;47.798;12.472;2022-08-04T14:49:53;5.65;;;2.00;;
72379;SDS011;60354;47.798;12.472;2022-08-04T14:52:23;3.78;;;2.10;;
72379;SDS011;60354;47.798;12.472;2022-08-04T14:54:49;4.68;;;2.10;;
72379;SDS011;60354;47.798;12.472;2022-08-04T14:57:15;4.15;;;2.13;;
72379;SDS011;60354;47.798;12.472;2022-08-04T15:02:12;6.95;;;2.30;;
72379;SDS011;60354;47.798;12.472;2022-08-04T15:04:39;3.40;;;2.00;;
72379;SDS011;60354;47.798;12.472;2022-08-04T15:07:07;3.33;;;1.85;;
72379;SDS011;60354;47.798;12.472;2022-08-04T15:09:33;3.72;;;2.22;;
72379;SDS011;60354;47.798;12.472;2022-08-04T15:12:00;3.75;;;2.03;;
72379;SDS011;60354;47.798;12.472;2022-08-04T15:14:26;4.95;;;2.10;;
72379;SDS011;60354;47.798;12.472;2022-08-04T15:16:53;3.33;;;2.10;;
72379;SDS011;60354;47.798;12.472;2022-08-04T15:19:19;3.38;;;2.10;;
72379;SDS011;60354;47.798;12.472;2022-08-04T15:21:44;5.97;;;2.28;;
72379;SDS011;60354;47.798;12.472;2022-08-04T15:24:10;3.10;;;2.30;;
72379;SDS011;60354;47.798;12.472;2022-08-04T15:27:09;4.10;;;2.00;;
72379;SDS011;60354;47.798;12.472;2022-08-04T15:29:39;4.70;;;2.22;;
72379;SDS011;60354;47.798;12.472;2022-08-04T15:32:10;4.57;;;2.00;;
72379;SDS011;60354;47.798;12.472;2022-08-04T15:34:45;2.67;;;1.92;;
72379;SDS011;60354;47.798;12.472;2022-08-04T15:37:36;3.47;;;2.00;;
72379;SDS011;60354;47.798;12.472;2022-08-04T15:47:07;2.40;;;2.00;;
72379;SDS011;60354;47.798;12.472;2022-08-04T15:49:18;5.55;;;1.98;;
72379;SDS011;60354;47.798;12.472;2022-08-04T15:51:44;2.83;;;2.20;;
72379;SDS011;60354;47.798;12.472;2022-08-04T15:56:42;4.43;;;2.28;;
72379;SDS011;60354;47.798;12.472;2022-08-04T15:59:09;3.10;;;2.10;;
72379;SDS011;60354;47.798;12.472;2022-08-04T16:01:34;5.47;;;2.10;;
72379;SDS011;60354;47.798;12.472;2022-08-04T16:04:04;2.63;;;2.20;;
72379;SDS011;60354;47.798;12.472;2022-08-04T16:06:45;4.57;;;2.20;;
72379;SDS011;60354;47.798;12.472;2022-08-04T16:09:19;7.55;;;2.15;;
72379;SDS011;60354;47.798;12.472;2022-08-04T16:11:47;3.78;;;2.03;;
72379;SDS011;60354;47.798;12.472;2022-08-04T16:14:13;3.80;;;2.17;;
72379;SDS011;60354;47.798;12.472;2022-08-04T16:21:54;3.90;;;2.10;;
72379;SDS011;60354;47.798;12.472;2022-08-04T16:24:40;4.03;;;2.08;;
72379;SDS011;60354;47.798;12.472;2022-08-04T16:27:07;3.00;;;2.30;;
72379;SDS011;60354;47.798;12.472;2022-08-04T16:29:35;2.42;;;1.90;;
72379;SDS011;60354;47.798;12.472;2022-08-04T16:37:12;5.25;;;2.33;;
72379;SDS011;60354;47.798;12.472;2022-08-04T16:39:39;4.32;;;2.38;;
72379;SDS011;60354;47.798;12.472;2022-08-04T16:50:11;4.07;;;2.10;;
72379;SDS011;60354;47.798;12.472;2022-08-04T16:55:34;2.90;;;2.00;;
72379;SDS011;60354;47.798;12.472;2022-08-04T16:58:00;5.30;;;2.10;;
72379;SDS011;60354;47.798;12.472;2022-08-04T17:00:26;3.60;;;2.25;;
72379;SDS011;60354;47.798;12.472;2022-08-04T17:02:54;4.18;;;2.30;;
72379;SDS011;60354;47.798;12.472;2022-08-04T17:05:25;5.55;;;1.98;;
72379;SDS011;60354;47.798;12.472;2022-08-04T17:07:51;3.25;;;2.35;;
72379;SDS011;60354;47.798;12.472;2022-08-04T17:10:19;4.50;;;2.42;;
72379;SDS011;60354;47.798;12.472;2022-08-04T17:13:00;2.50;;;2.00;;
72379;SDS011;60354;47.798;12.472;2022-08-04T17:15:45;4.20;;;2.15;;
72379;SDS011;60354;47.798;12.472;2022-08-04T17:18:14;4.88;;;2.30;;
72379;SDS011;60354;47.798;12.472;2022-08-04T17:20:43;3.95;;;2.00;;
72379;SDS011;60354;47.798;12.472;2022-08-04T17:25:57;5.38;;;2.40;;
72379;SDS011;60354;47.798;12.472;2022-08-04T17:28:28;5.43;;;2.05;;
72379;SDS011;60354;47.798;12.472;2022-08-04T17:30:54;3.13;;;2.05;;
72379;SDS011;60354;47.798;12.472;2022-08-04T17:33:22;3.13;;;2.00;;
72379;SDS011;60354;47.798;12.472;2022-08-04T17:35:49;2.85;;;2.20;;
72379;SDS011;60354;47.798;12.472;2022-08-04T17:38:15;2.60;;;2.40;;
72379;SDS011;60354;47.798;12.472;2022-08-04T17:40:50;5.70;;;2.30;;
72379;SDS011;60354;47.798;12.472;2022-08-04T17:43:17;3.75;;;2.13;;
72379;SDS011;60354;47.798;12.472;2022-08-04T17:45:43;8.68;;;2.42;;
72379;SDS011;60354;47.798;12.472;2022-08-04T17:48:16;3.83;;;2.00;;
72379;SDS011;60354;47.798;12.472;2022-08-04T17:50:43;3.42;;;2.10;;
72379;SDS011;60354;47.798;12.472;2022-08-04T17:53:09;3.92;;;2.10;;
72379;SDS011;60354;47.798;12.472;2022-08-04T17:55:54;2.92;;;2.08;;
72379;SDS011;60354;47.798;12.472;2022-08-04T17:58:20;2.72;;;1.95;;
72379;SDS011;60354;47.798;12.472;2022-08-04T18:00:59;2.72;;;1.90;;
72379;SDS011;60354;47.798;12.472;2022-08-04T18:03:26;4.18;;;2.30;;
72379;SDS011;60354;47.798;12.472;2022-08-04T18:05:52;3.75;;;2.22;;
72379;SDS011;60354;47.798;12.472;2022-08-04T18:08:25;4.28;;;2.15;;
72379;SDS011;60354;47.798;12.472;2022-08-04T18:10:51;5.80;;;2.33;;
72379;SDS011;60354;47.798;12.472;2022-08-04T18:13:17;4.15;;;2.50;;
72379;SDS011;60354;47.798;12.472;2022-08-04T18:15:43;7.85;;;2.30;;
72379;SDS011;60354;47.798;12.472;2022-08-04T18:18:15;3.22;;;2.30;;
72379;SDS011;60354;47.798;12.472;2022-08-04T18:20:42;3.13;;;2.20;;
72379;SDS011;60354;47.798;12.472;2022-08-04T18:23:08;3.50;;;2.17;;
72379;SDS011;60354;47.798;12.472;2022-08-04T18:25:35;3.92;;;2.22;;
72379;SDS011;60354;47.798;12.472;2022-08-04T18:28:03;4.05;;;2.30;;
72379;SDS011;60354;47.798;12.472;2022-08-04T18:30:33;6.03;;;2.50;;
72379;SDS011;60354;47.798;12.472;2022-08-04T18:32:59;6.88;;;3.20;;
72379;SDS011;60354;47.798;12.472;2022-08-04T18:35:26;4.70;;;3.40;;
72379;SDS011;60354;47.798;12.472;2022-08-04T18:37:53;4.97;;;2.97;;
72379;SDS011;60354;47.798;12.472;2022-08-04T18:40:19;5.10;;;3.20;;
72379;SDS011;60354;47.798;12.472;2022-08-04T18:42:44;8.45;;;2.75;;
72379;SDS011;60354;47.798;12.472;2022-08-04T18:45:10;4.85;;;2.45;;
72379;SDS011;60354;47.798;12.472;2022-08-04T18:47:37;4.32;;;2.38;;
72379;SDS011;60354;47.798;12.472;2022-08-04T18:50:03;4.55;;;2.50;;
72379;SDS011;60354;47.798;12.472;2022-08-04T18:52:28;7.60;;;3.80;;
72379;SDS011;60354;47.798;12.472;2022-08-04T18:54:54;5.32;;;3.40;;
72379;SDS011;60354;47.798;12.472;2022-08-04T18:57:20;5.90;;;2.78;;
72379;SDS011;60354;47.798;12.472;2022-08-04T18:59:46;6.95;;;2.60;;
72379;SDS011;60354;47.798;12.472;2022-08-04T19:02:12;8.10;;;2.80;;
72379;SDS011;60354;47.798;12.472;2022-08-04T19:04:38;8.60;;;2.90;;
72379;SDS011;60354;47.798;12.472;2022-08-04T19:07:05;7.43;;;3.03;;
72379;SDS011;60354;47.798;12.472;2022-08-04T19:09:31;4.47;;;2.60;;
72379;SDS011;60354;47.798;12.472;2022-08-04T19:11:56;9.02;;;2.80;;
72379;SDS011;60354;47.798;12.472;2022-08-04T19:14:22;6.65;;;2.50;;
72379;SDS011;60354;47.798;12.472;2022-08-04T19:16:48;4.47;;;2.70;;
72379;SDS011;60354;47.798;12.472;2022-08-04T19:19:13;6.22;;;2.85;;
72379;SDS011;60354;47.798;12.472;2022-08-04T19:21:41;5.60;;;2.40;;
72379;SDS011;60354;47.798;12.472;2022-08-04T19:24:06;8.95;;;2.65;;
72379;SDS011;60354;47.798;12.472;2022-08-04T19:26:32;5.30;;;3.20;;
72379;SDS011;60354;47.798;12.472;2022-08-04T19:28:59;5.55;;;2.60;;
72379;SDS011;60354;47.798;12.472;2022-08-04T19:31:25;4.82;;;2.65;;
72379;SDS011;60354;47.798;12.472;2022-08-04T19:33:50;5.75;;;2.40;;
72379;SDS011;60354;47.798;12.472;2022-08-04T19:36:16;4.38;;;2.38;;
72379;SDS011;60354;47.798;12.472;2022-08-04T19:38:42;4.40;;;2.50;;
72379;SDS011;60354;47.798;12.472;2022-08-04T19:41:07;3.70;;;2.40;;
72379;SDS011;60354;47.798;12.472;2022-08-04T19:43:33;5.07;;;2.55;;
72379;SDS011;60354;47.798;12.472;2022-08-04T19:45:59;4.75;;;2.40;;
72379;SDS011;60354;47.798;12.472;2022-08-04T19:48:24;6.03;;;2.90;;
72379;SDS011;60354;47.798;12.472;2022-08-04T19:50:51;6.10;;;2.65;;